sensor_id;sensor_type;location;lat;lon;timestamp;temperature;humidity
34145;HTU21D;69555;53.014;8.886;2024-01-15T00:04:24;1.14;105.99
34145;HTU21D;69555;53.014;8.886;2024-01-15T00:06:50;1.19;105.67
34145;HTU21D;69555;53.014;8.886;2024-01-15T00:09:16;1.08;106.01
34145;HTU21D;69555;53.014;8.886;2024-01-15T00:11:42;1.16;105.45
34145;HTU21D;69555;53.014;8.886;2024-01-15T00:17:29;1.14;105.66
34145;HTU21D;69555;53.014;8.886;2024-01-15T00:19:55;1.13;105.52
34145;HTU21D;69555;53.014;8.886;2024-01-15T00:25:42;1.21;105.18
34145;HTU21D;69555;53.014;8.886;2024-01-15T00:28:08;1.23;105.09
34145;HTU21D;69555;53.014;8.886;2024-01-15T00:33:55;1.32;104.65
34145;HTU21D;69555;53.014;8.886;2024-01-15T00:36:21;1.36;104.41
34145;HTU21D;69555;53.014;8.886;2024-01-15T00:42:08;1.46;103.52
34145;HTU21D;69555;53.014;8.886;2024-01-15T00:54:40;1.53;101.60
34145;HTU21D;69555;53.014;8.886;2024-01-15T00:57:05;1.60;101.50
34145;HTU21D;69555;53.014;8.886;2024-01-15T01:02:52;1.58;101.06
34145;HTU21D;69555;53.014;8.886;2024-01-15T01:05:18;1.55;101.77
34145;HTU21D;69555;53.014;8.886;2024-01-15T01:07:43;1.56;101.75
34145;HTU21D;69555;53.014;8.886;2024-01-15T01:10:09;1.60;102.06
34145;HTU21D;69555;53.014;8.886;2024-01-15T01:12:34;1.56;102.57
34145;HTU21D;69555;53.014;8.886;2024-01-15T01:18:21;1.57;102.60
34145;HTU21D;69555;53.014;8.886;2024-01-15T01:20:47;1.49;103.07
34145;HTU21D;69555;53.014;8.886;2024-01-15T01:23:12;1.50;103.47
34145;HTU21D;69555;53.014;8.886;2024-01-15T01:25:38;1.54;103.15
34145;HTU21D;69555;53.014;8.886;2024-01-15T01:31:25;1.57;103.28
34145;HTU21D;69555;53.014;8.886;2024-01-15T01:33:50;1.64;103.47
34145;HTU21D;69555;53.014;8.886;2024-01-15T01:36:15;1.56;103.85
34145;HTU21D;69555;53.014;8.886;2024-01-15T01:38:41;1.62;103.48
34145;HTU21D;69555;53.014;8.886;2024-01-15T01:41:07;1.54;104.31
34145;HTU21D;69555;53.014;8.886;2024-01-15T01:43:33;1.46;105.31
34145;HTU21D;69555;53.014;8.886;2024-01-15T01:49:22;1.05;108.34
34145;HTU21D;69555;53.014;8.886;2024-01-15T01:51:48;1.14;107.68
34145;HTU21D;69555;53.014;8.886;2024-01-15T01:54:14;1.09;108.16
34145;HTU21D;69555;53.014;8.886;2024-01-15T01:56:41;0.98;109.28
34145;HTU21D;69555;53.014;8.886;2024-01-15T02:02:28;1.01;109.89
34145;HTU21D;69555;53.014;8.886;2024-01-15T02:04:53;0.97;110.32
34145;HTU21D;69555;53.014;8.886;2024-01-15T02:07:19;0.98;110.29
34145;HTU21D;69555;53.014;8.886;2024-01-15T02:09:44;0.96;110.46
34145;HTU21D;69555;53.014;8.886;2024-01-15T02:12:10;1.02;110.04
34145;HTU21D;69555;53.014;8.886;2024-01-15T02:18:03;0.96;110.58
34145;HTU21D;69555;53.014;8.886;2024-01-15T02:20:29;0.94;110.90
34145;HTU21D;69555;53.014;8.886;2024-01-15T02:26:17;1.11;109.89
34145;HTU21D;69555;53.014;8.886;2024-01-15T02:28:43;1.12;109.58
34145;HTU21D;69555;53.014;8.886;2024-01-15T02:31:09;1.17;109.63
34145;HTU21D;69555;53.014;8.886;2024-01-15T02:33:35;1.16;109.56
34145;HTU21D;69555;53.014;8.886;2024-01-15T02:36:00;1.22;109.42
34145;HTU21D;69555;53.014;8.886;2024-01-15T02:38:26;1.20;109.49
34145;HTU21D;69555;53.014;8.886;2024-01-15T02:40:51;1.23;109.46
34145;HTU21D;69555;53.014;8.886;2024-01-15T02:43:16;1.31;109.18
34145;HTU21D;69555;53.014;8.886;2024-01-15T02:49:06;1.35;108.96
34145;HTU21D;69555;53.014;8.886;2024-01-15T02:51:31;1.40;108.52
34145;HTU21D;69555;53.014;8.886;2024-01-15T02:53:57;1.38;108.71
34145;HTU21D;69555;53.014;8.886;2024-01-15T02:56:22;1.45;108.47
34145;HTU21D;69555;53.014;8.886;2024-01-15T03:05:31;1.47;108.41
34145;HTU21D;69555;53.014;8.886;2024-01-15T03:07:57;1.48;107.83
34145;HTU21D;69555;53.014;8.886;2024-01-15T03:13:44;1.37;108.31
34145;HTU21D;69555;53.014;8.886;2024-01-15T03:19:34;1.34;108.10
34145;HTU21D;69555;53.014;8.886;2024-01-15T03:22:00;1.32;108.33
34145;HTU21D;69555;53.014;8.886;2024-01-15T03:24:26;1.14;109.33
34145;HTU21D;69555;53.014;8.886;2024-01-15T03:26:51;1.13;109.62
34145;HTU21D;69555;53.014;8.886;2024-01-15T03:32:39;1.21;109.15
34145;HTU21D;69555;53.014;8.886;2024-01-15T03:35:05;1.18;109.53
34145;HTU21D;69555;53.014;8.886;2024-01-15T03:37:30;1.24;109.36
34145;HTU21D;69555;53.014;8.886;2024-01-15T03:39:56;1.38;108.30
34145;HTU21D;69555;53.014;8.886;2024-01-15T03:42:21;1.34;108.70
34145;HTU21D;69555;53.014;8.886;2024-01-15T03:48:28;1.33;108.91
34145;HTU21D;69555;53.014;8.886;2024-01-15T03:54:15;1.20;109.14
34145;HTU21D;69555;53.014;8.886;2024-01-15T03:56:40;1.14;109.50
34145;HTU21D;69555;53.014;8.886;2024-01-15T04:05:49;1.24;108.84
34145;HTU21D;69555;53.014;8.886;2024-01-15T04:08:15;1.21;109.17
34145;HTU21D;69555;53.014;8.886;2024-01-15T04:10:40;1.22;108.96
34145;HTU21D;69555;53.014;8.886;2024-01-15T04:13:06;1.24;109.10
34145;HTU21D;69555;53.014;8.886;2024-01-15T04:18:54;1.28;108.44
34145;HTU21D;69555;53.014;8.886;2024-01-15T04:21:19;1.27;108.66
34145;HTU21D;69555;53.014;8.886;2024-01-15T04:23:44;1.33;108.59
34145;HTU21D;69555;53.014;8.886;2024-01-15T04:26:10;1.42;108.75
34145;HTU21D;69555;53.014;8.886;2024-01-15T04:28:35;1.39;108.74
34145;HTU21D;69555;53.014;8.886;2024-01-15T04:34:22;1.48;107.99
34145;HTU21D;69555;53.014;8.886;2024-01-15T04:36:48;1.50;107.85
34145;HTU21D;69555;53.014;8.886;2024-01-15T04:39:13;1.53;107.96
34145;HTU21D;69555;53.014;8.886;2024-01-15T04:41:38;1.51;107.99
34145;HTU21D;69555;53.014;8.886;2024-01-15T04:50:48;1.48;108.08
34145;HTU21D;69555;53.014;8.886;2024-01-15T04:53:13;1.53;107.77
34145;HTU21D;69555;53.014;8.886;2024-01-15T04:55:39;1.51;107.70
34145;HTU21D;69555;53.014;8.886;2024-01-15T04:58:04;1.53;107.95
34145;HTU21D;69555;53.014;8.886;2024-01-15T05:03:52;1.49;108.33
34145;HTU21D;69555;53.014;8.886;2024-01-15T05:06:17;1.40;108.46
34145;HTU21D;69555;53.014;8.886;2024-01-15T05:12:04;1.21;109.26
34145;HTU21D;69555;53.014;8.886;2024-01-15T05:17:52;1.19;109.41
34145;HTU21D;69555;53.014;8.886;2024-01-15T05:20:17;1.13;109.63
34145;HTU21D;69555;53.014;8.886;2024-01-15T05:26:05;1.17;109.63
34145;HTU21D;69555;53.014;8.886;2024-01-15T05:28:30;1.13;109.83
34145;HTU21D;69555;53.014;8.886;2024-01-15T05:34:17;1.13;110.24
34145;HTU21D;69555;53.014;8.886;2024-01-15T05:36:43;1.21;109.92
34145;HTU21D;69555;53.014;8.886;2024-01-15T05:39:08;1.16;110.06
34145;HTU21D;69555;53.014;8.886;2024-01-15T05:41:34;1.10;110.05
34145;HTU21D;69555;53.014;8.886;2024-01-15T05:54:06;1.26;109.47
34145;HTU21D;69555;53.014;8.886;2024-01-15T05:56:31;1.23;109.68
34145;HTU21D;69555;53.014;8.886;2024-01-15T06:08:44;1.28;109.44
34145;HTU21D;69555;53.014;8.886;2024-01-15T06:14:31;1.20;109.80
34145;HTU21D;69555;53.014;8.886;2024-01-15T06:20:18;1.22;109.49
34145;HTU21D;69555;53.014;8.886;2024-01-15T06:26:05;1.27;109.36
34145;HTU21D;69555;53.014;8.886;2024-01-15T06:31:53;1.29;109.25
34145;HTU21D;69555;53.014;8.886;2024-01-15T06:37:40;1.22;109.36
34145;HTU21D;69555;53.014;8.886;2024-01-15T06:46:49;1.22;109.52
34145;HTU21D;69555;53.014;8.886;2024-01-15T06:49:15;1.20;109.60
34145;HTU21D;69555;53.014;8.886;2024-01-15T06:51:40;1.17;109.85
34145;HTU21D;69555;53.014;8.886;2024-01-15T06:57:28;1.10;110.51
34145;HTU21D;69555;53.014;8.886;2024-01-15T07:03:16;1.19;110.11
34145;HTU21D;69555;53.014;8.886;2024-01-15T07:09:04;1.21;109.49
34145;HTU21D;69555;53.014;8.886;2024-01-15T07:11:29;1.04;110.12
34145;HTU21D;69555;53.014;8.886;2024-01-15T07:17:16;0.83;111.36
34145;HTU21D;69555;53.014;8.886;2024-01-15T07:19:41;0.65;112.00
34145;HTU21D;69555;53.014;8.886;2024-01-15T07:25:29;0.54;112.77
34145;HTU21D;69555;53.014;8.886;2024-01-15T07:27:54;0.65;112.46
34145;HTU21D;69555;53.014;8.886;2024-01-15T07:33:54;0.63;112.74
34145;HTU21D;69555;53.014;8.886;2024-01-15T07:39:41;0.65;112.29
34145;HTU21D;69555;53.014;8.886;2024-01-15T07:42:07;0.69;112.34
34145;HTU21D;69555;53.014;8.886;2024-01-15T07:47:54;0.79;111.68
34145;HTU21D;69555;53.014;8.886;2024-01-15T07:53:41;0.89;111.39
34145;HTU21D;69555;53.014;8.886;2024-01-15T07:59:29;1.02;110.68
34145;HTU21D;69555;53.014;8.886;2024-01-15T08:05:16;1.14;110.17
34145;HTU21D;69555;53.014;8.886;2024-01-15T08:11:23;1.09;109.69
34145;HTU21D;69555;53.014;8.886;2024-01-15T08:17:10;1.12;108.22
34145;HTU21D;69555;53.014;8.886;2024-01-15T08:19:35;1.09;108.16
34145;HTU21D;69555;53.014;8.886;2024-01-15T08:38:50;1.10;108.03
34145;HTU21D;69555;53.014;8.886;2024-01-15T08:44:38;1.16;107.69
34145;HTU21D;69555;53.014;8.886;2024-01-15T08:50:27;1.12;107.85
34145;HTU21D;69555;53.014;8.886;2024-01-15T08:56:15;1.25;107.47
34145;HTU21D;69555;53.014;8.886;2024-01-15T08:58:40;1.33;107.01
34145;HTU21D;69555;53.014;8.886;2024-01-15T09:04:28;1.27;106.89
34145;HTU21D;69555;53.014;8.886;2024-01-15T09:06:53;1.29;107.31
34145;HTU21D;69555;53.014;8.886;2024-01-15T09:09:18;1.28;106.89
34145;HTU21D;69555;53.014;8.886;2024-01-15T09:11:45;1.35;106.87
34145;HTU21D;69555;53.014;8.886;2024-01-15T09:17:32;1.56;105.57
34145;HTU21D;69555;53.014;8.886;2024-01-15T09:19:58;1.52;105.34
34145;HTU21D;69555;53.014;8.886;2024-01-15T09:22:23;1.65;105.08
34145;HTU21D;69555;53.014;8.886;2024-01-15T09:24:48;1.61;105.43
34145;HTU21D;69555;53.014;8.886;2024-01-15T09:27:14;1.56;105.72
34145;HTU21D;69555;53.014;8.886;2024-01-15T09:33:01;1.63;104.89
34145;HTU21D;69555;53.014;8.886;2024-01-15T09:38:48;1.80;104.80
34145;HTU21D;69555;53.014;8.886;2024-01-15T09:41:14;1.84;104.95
34145;HTU21D;69555;53.014;8.886;2024-01-15T09:43:40;2.00;104.24
34145;HTU21D;69555;53.014;8.886;2024-01-15T09:49:28;1.87;104.54
34145;HTU21D;69555;53.014;8.886;2024-01-15T09:51:55;1.72;105.40
34145;HTU21D;69555;53.014;8.886;2024-01-15T09:54:22;1.75;105.41
34145;HTU21D;69555;53.014;8.886;2024-01-15T09:56:49;1.73;105.33
34145;HTU21D;69555;53.014;8.886;2024-01-15T10:09:20;1.83;105.92
34145;HTU21D;69555;53.014;8.886;2024-01-15T10:11:45;1.77;106.06
34145;HTU21D;69555;53.014;8.886;2024-01-15T10:17:33;1.70;106.85
34145;HTU21D;69555;53.014;8.886;2024-01-15T10:33:27;1.81;105.66
34145;HTU21D;69555;53.014;8.886;2024-01-15T10:39:14;1.75;107.33
34145;HTU21D;69555;53.014;8.886;2024-01-15T10:45:01;1.78;106.98
34145;HTU21D;69555;53.014;8.886;2024-01-15T10:50:48;1.90;106.05
34145;HTU21D;69555;53.014;8.886;2024-01-15T10:56:37;1.81;106.45
34145;HTU21D;69555;53.014;8.886;2024-01-15T11:02:25;1.77;106.88
34145;HTU21D;69555;53.014;8.886;2024-01-15T11:08:17;1.61;107.79
34145;HTU21D;69555;53.014;8.886;2024-01-15T11:19:18;1.54;108.17
34145;HTU21D;69555;53.014;8.886;2024-01-15T11:21:44;1.61;108.46
34145;HTU21D;69555;53.014;8.886;2024-01-15T11:24:09;1.72;108.06
34145;HTU21D;69555;53.014;8.886;2024-01-15T11:26:44;1.78;108.31
34145;HTU21D;69555;53.014;8.886;2024-01-15T11:35:49;1.99;107.22
34145;HTU21D;69555;53.014;8.886;2024-01-15T11:41:37;1.90;106.46
34145;HTU21D;69555;53.014;8.886;2024-01-15T11:54:06;1.94;105.82
34145;HTU21D;69555;53.014;8.886;2024-01-15T11:56:35;1.97;105.55
34145;HTU21D;69555;53.014;8.886;2024-01-15T11:59:01;2.05;105.63
34145;HTU21D;69555;53.014;8.886;2024-01-15T12:01:26;2.09;105.79
34145;HTU21D;69555;53.014;8.886;2024-01-15T12:03:51;2.03;104.03
34145;HTU21D;69555;53.014;8.886;2024-01-15T12:06:17;1.96;104.05
34145;HTU21D;69555;53.014;8.886;2024-01-15T12:08:42;2.01;105.31
34145;HTU21D;69555;53.014;8.886;2024-01-15T12:11:13;2.11;103.52
34145;HTU21D;69555;53.014;8.886;2024-01-15T12:13:40;2.25;103.45
34145;HTU21D;69555;53.014;8.886;2024-01-15T12:16:05;2.41;103.73
34145;HTU21D;69555;53.014;8.886;2024-01-15T12:18:31;2.42;102.31
34145;HTU21D;69555;53.014;8.886;2024-01-15T12:20:57;2.50;102.03
34145;HTU21D;69555;53.014;8.886;2024-01-15T12:23:23;2.34;103.21
34145;HTU21D;69555;53.014;8.886;2024-01-15T12:25:49;2.27;103.99
34145;HTU21D;69555;53.014;8.886;2024-01-15T12:28:15;2.39;104.15
34145;HTU21D;69555;53.014;8.886;2024-01-15T12:30:40;2.38;104.02
34145;HTU21D;69555;53.014;8.886;2024-01-15T12:33:07;2.19;104.16
34145;HTU21D;69555;53.014;8.886;2024-01-15T12:35:33;2.06;104.77
34145;HTU21D;69555;53.014;8.886;2024-01-15T12:38:02;2.13;104.39
34145;HTU21D;69555;53.014;8.886;2024-01-15T12:40:27;2.12;104.70
34145;HTU21D;69555;53.014;8.886;2024-01-15T12:42:53;1.93;105.26
34145;HTU21D;69555;53.014;8.886;2024-01-15T12:45:18;1.95;105.45
34145;HTU21D;69555;53.014;8.886;2024-01-15T12:47:44;2.02;106.00
34145;HTU21D;69555;53.014;8.886;2024-01-15T12:50:12;2.00;104.58
34145;HTU21D;69555;53.014;8.886;2024-01-15T12:52:40;2.17;105.73
34145;HTU21D;69555;53.014;8.886;2024-01-15T12:55:06;2.28;105.40
34145;HTU21D;69555;53.014;8.886;2024-01-15T12:57:33;2.29;104.91
34145;HTU21D;69555;53.014;8.886;2024-01-15T12:59:59;2.15;105.06
34145;HTU21D;69555;53.014;8.886;2024-01-15T13:02:24;2.34;104.79
34145;HTU21D;69555;53.014;8.886;2024-01-15T13:04:49;2.24;104.68
34145;HTU21D;69555;53.014;8.886;2024-01-15T13:07:15;2.34;104.39
34145;HTU21D;69555;53.014;8.886;2024-01-15T13:09:40;2.17;104.66
34145;HTU21D;69555;53.014;8.886;2024-01-15T13:12:06;2.00;105.60
34145;HTU21D;69555;53.014;8.886;2024-01-15T13:14:31;1.82;106.05
34145;HTU21D;69555;53.014;8.886;2024-01-15T13:16:58;1.57;107.66
34145;HTU21D;69555;53.014;8.886;2024-01-15T13:19:24;1.37;107.89
34145;HTU21D;69555;53.014;8.886;2024-01-15T13:21:50;1.25;108.70
34145;HTU21D;69555;53.014;8.886;2024-01-15T13:24:17;1.32;107.95
34145;HTU21D;69555;53.014;8.886;2024-01-15T13:26:42;1.39;108.05
34145;HTU21D;69555;53.014;8.886;2024-01-15T13:29:08;1.75;106.97
34145;HTU21D;69555;53.014;8.886;2024-01-15T13:31:33;1.73;105.90
34145;HTU21D;69555;53.014;8.886;2024-01-15T13:33:59;1.82;105.58
34145;HTU21D;69555;53.014;8.886;2024-01-15T13:36:26;1.46;107.15
34145;HTU21D;69555;53.014;8.886;2024-01-15T13:38:52;1.68;106.93
34145;HTU21D;69555;53.014;8.886;2024-01-15T13:41:19;1.68;106.07
34145;HTU21D;69555;53.014;8.886;2024-01-15T13:43:49;1.49;106.93
34145;HTU21D;69555;53.014;8.886;2024-01-15T13:46:15;1.61;107.36
34145;HTU21D;69555;53.014;8.886;2024-01-15T13:48:40;1.31;108.04
34145;HTU21D;69555;53.014;8.886;2024-01-15T13:51:06;1.34;108.04
34145;HTU21D;69555;53.014;8.886;2024-01-15T13:53:31;1.33;108.63
34145;HTU21D;69555;53.014;8.886;2024-01-15T13:55:57;1.20;109.11
34145;HTU21D;69555;53.014;8.886;2024-01-15T13:58:22;1.12;109.35
34145;HTU21D;69555;53.014;8.886;2024-01-15T14:00:47;1.28;109.80
34145;HTU21D;69555;53.014;8.886;2024-01-15T14:03:14;1.08;109.65
34145;HTU21D;69555;53.014;8.886;2024-01-15T14:05:39;1.25;109.40
34145;HTU21D;69555;53.014;8.886;2024-01-15T14:08:05;1.25;109.32
34145;HTU21D;69555;53.014;8.886;2024-01-15T14:10:31;1.35;109.03
34145;HTU21D;69555;53.014;8.886;2024-01-15T14:12:56;1.45;108.75
34145;HTU21D;69555;53.014;8.886;2024-01-15T14:15:22;1.36;109.17
34145;HTU21D;69555;53.014;8.886;2024-01-15T14:17:47;1.32;109.52
34145;HTU21D;69555;53.014;8.886;2024-01-15T14:20:12;1.22;109.84
34145;HTU21D;69555;53.014;8.886;2024-01-15T14:22:38;1.38;109.46
34145;HTU21D;69555;53.014;8.886;2024-01-15T14:25:04;1.22;109.87
34145;HTU21D;69555;53.014;8.886;2024-01-15T14:27:29;1.34;109.66
34145;HTU21D;69555;53.014;8.886;2024-01-15T14:29:55;1.35;109.71
34145;HTU21D;69555;53.014;8.886;2024-01-15T14:32:20;1.35;109.47
34145;HTU21D;69555;53.014;8.886;2024-01-15T14:34:46;1.38;109.36
34145;HTU21D;69555;53.014;8.886;2024-01-15T14:37:11;1.27;110.00
34145;HTU21D;69555;53.014;8.886;2024-01-15T14:39:37;1.34;110.09
34145;HTU21D;69555;53.014;8.886;2024-01-15T14:42:02;1.35;109.46
34145;HTU21D;69555;53.014;8.886;2024-01-15T14:44:28;1.36;110.00
34145;HTU21D;69555;53.014;8.886;2024-01-15T14:46:57;1.35;109.55
34145;HTU21D;69555;53.014;8.886;2024-01-15T14:49:24;1.32;109.84
34145;HTU21D;69555;53.014;8.886;2024-01-15T14:51:50;1.37;109.36
34145;HTU21D;69555;53.014;8.886;2024-01-15T14:54:15;1.26;109.62
34145;HTU21D;69555;53.014;8.886;2024-01-15T14:56:41;1.18;110.28
34145;HTU21D;69555;53.014;8.886;2024-01-15T14:59:08;1.21;110.52
34145;HTU21D;69555;53.014;8.886;2024-01-15T15:01:33;1.24;110.17
34145;HTU21D;69555;53.014;8.886;2024-01-15T15:03:58;1.33;109.46
34145;HTU21D;69555;53.014;8.886;2024-01-15T15:06:24;1.28;109.56
34145;HTU21D;69555;53.014;8.886;2024-01-15T15:08:55;1.28;109.72
34145;HTU21D;69555;53.014;8.886;2024-01-15T15:11:21;1.28;109.57
34145;HTU21D;69555;53.014;8.886;2024-01-15T15:13:48;1.43;109.07
34145;HTU21D;69555;53.014;8.886;2024-01-15T15:16:15;1.55;108.15
34145;HTU21D;69555;53.014;8.886;2024-01-15T15:18:41;1.48;108.51
34145;HTU21D;69555;53.014;8.886;2024-01-15T15:21:08;1.37;109.03
34145;HTU21D;69555;53.014;8.886;2024-01-15T15:23:33;1.38;109.30
34145;HTU21D;69555;53.014;8.886;2024-01-15T15:25:59;1.32;109.21
34145;HTU21D;69555;53.014;8.886;2024-01-15T15:28:24;1.35;109.05
34145;HTU21D;69555;53.014;8.886;2024-01-15T15:30:49;1.45;109.45
34145;HTU21D;69555;53.014;8.886;2024-01-15T15:33:15;1.38;108.64
34145;HTU21D;69555;53.014;8.886;2024-01-15T15:35:41;1.29;109.33
34145;HTU21D;69555;53.014;8.886;2024-01-15T15:38:06;1.48;109.04
34145;HTU21D;69555;53.014;8.886;2024-01-15T15:40:31;1.39;108.87
34145;HTU21D;69555;53.014;8.886;2024-01-15T15:42:57;1.22;109.55
34145;HTU21D;69555;53.014;8.886;2024-01-15T15:45:22;1.27;109.72
34145;HTU21D;69555;53.014;8.886;2024-01-15T15:47:47;1.32;109.42
34145;HTU21D;69555;53.014;8.886;2024-01-15T15:50:13;1.25;109.87
34145;HTU21D;69555;53.014;8.886;2024-01-15T15:52:39;1.29;110.07
34145;HTU21D;69555;53.014;8.886;2024-01-15T15:55:04;1.43;109.62
34145;HTU21D;69555;53.014;8.886;2024-01-15T15:57:30;1.35;109.52
34145;HTU21D;69555;53.014;8.886;2024-01-15T15:59:57;1.36;109.52
34145;HTU21D;69555;53.014;8.886;2024-01-15T16:02:22;1.23;109.85
34145;HTU21D;69555;53.014;8.886;2024-01-15T16:04:48;0.98;111.13
34145;HTU21D;69555;53.014;8.886;2024-01-15T16:07:13;1.18;110.35
34145;HTU21D;69555;53.014;8.886;2024-01-15T16:09:39;1.13;110.26
34145;HTU21D;69555;53.014;8.886;2024-01-15T16:12:06;1.05;110.86
34145;HTU21D;69555;53.014;8.886;2024-01-15T16:14:31;1.09;110.67
34145;HTU21D;69555;53.014;8.886;2024-01-15T16:16:57;0.97;110.78
34145;HTU21D;69555;53.014;8.886;2024-01-15T16:19:24;1.04;110.87
34145;HTU21D;69555;53.014;8.886;2024-01-15T16:21:50;1.01;111.02
34145;HTU21D;69555;53.014;8.886;2024-01-15T16:24:15;1.06;110.48
34145;HTU21D;69555;53.014;8.886;2024-01-15T16:26:41;0.93;111.06
34145;HTU21D;69555;53.014;8.886;2024-01-15T16:29:06;0.96;110.56
34145;HTU21D;69555;53.014;8.886;2024-01-15T16:31:32;0.90;110.91
34145;HTU21D;69555;53.014;8.886;2024-01-15T16:33:58;0.91;111.66
34145;HTU21D;69555;53.014;8.886;2024-01-15T16:36:24;1.08;110.88
34145;HTU21D;69555;53.014;8.886;2024-01-15T16:38:50;1.11;110.51
34145;HTU21D;69555;53.014;8.886;2024-01-15T16:41:16;1.10;110.34
34145;HTU21D;69555;53.014;8.886;2024-01-15T16:43:41;1.10;110.11
34145;HTU21D;69555;53.014;8.886;2024-01-15T16:46:07;1.06;110.39
34145;HTU21D;69555;53.014;8.886;2024-01-15T16:48:32;1.03;110.36
34145;HTU21D;69555;53.014;8.886;2024-01-15T16:50:58;1.08;110.56
34145;HTU21D;69555;53.014;8.886;2024-01-15T16:53:23;0.97;110.45
34145;HTU21D;69555;53.014;8.886;2024-01-15T16:55:48;1.09;110.43
34145;HTU21D;69555;53.014;8.886;2024-01-15T16:58:14;1.04;110.17
34145;HTU21D;69555;53.014;8.886;2024-01-15T17:00:40;1.07;110.40
34145;HTU21D;69555;53.014;8.886;2024-01-15T17:03:05;1.07;110.13
34145;HTU21D;69555;53.014;8.886;2024-01-15T17:05:30;1.11;110.18
34145;HTU21D;69555;53.014;8.886;2024-01-15T17:07:56;1.11;109.98
34145;HTU21D;69555;53.014;8.886;2024-01-15T17:10:21;1.10;109.40
34145;HTU21D;69555;53.014;8.886;2024-01-15T17:12:46;1.05;109.97
34145;HTU21D;69555;53.014;8.886;2024-01-15T17:15:13;1.12;109.46
34145;HTU21D;69555;53.014;8.886;2024-01-15T17:17:38;1.18;109.62
34145;HTU21D;69555;53.014;8.886;2024-01-15T17:20:04;0.94;109.76
34145;HTU21D;69555;53.014;8.886;2024-01-15T17:22:30;0.93;110.49
34145;HTU21D;69555;53.014;8.886;2024-01-15T17:24:57;1.01;110.11
34145;HTU21D;69555;53.014;8.886;2024-01-15T17:27:23;0.92;110.23
34145;HTU21D;69555;53.014;8.886;2024-01-15T17:29:48;1.01;109.50
34145;HTU21D;69555;53.014;8.886;2024-01-15T17:32:14;0.96;109.60
34145;HTU21D;69555;53.014;8.886;2024-01-15T17:34:40;0.93;109.88
34145;HTU21D;69555;53.014;8.886;2024-01-15T17:37:05;1.10;109.26
34145;HTU21D;69555;53.014;8.886;2024-01-15T17:39:30;0.98;109.34
34145;HTU21D;69555;53.014;8.886;2024-01-15T17:41:56;0.99;108.93
34145;HTU21D;69555;53.014;8.886;2024-01-15T17:44:23;0.93;109.47
34145;HTU21D;69555;53.014;8.886;2024-01-15T17:46:50;0.98;108.75
34145;HTU21D;69555;53.014;8.886;2024-01-15T17:49:15;1.11;108.39
34145;HTU21D;69555;53.014;8.886;2024-01-15T17:51:41;1.05;108.24
34145;HTU21D;69555;53.014;8.886;2024-01-15T17:54:06;1.16;107.85
34145;HTU21D;69555;53.014;8.886;2024-01-15T17:56:34;1.06;107.32
34145;HTU21D;69555;53.014;8.886;2024-01-15T17:58:59;1.07;107.25
34145;HTU21D;69555;53.014;8.886;2024-01-15T18:01:25;1.04;106.88
34145;HTU21D;69555;53.014;8.886;2024-01-15T18:03:51;1.02;107.75
34145;HTU21D;69555;53.014;8.886;2024-01-15T18:06:17;0.98;107.69
34145;HTU21D;69555;53.014;8.886;2024-01-15T18:08:43;1.01;107.80
34145;HTU21D;69555;53.014;8.886;2024-01-15T18:11:17;0.97;108.08
34145;HTU21D;69555;53.014;8.886;2024-01-15T18:13:44;0.96;107.98
34145;HTU21D;69555;53.014;8.886;2024-01-15T18:16:11;1.01;107.92
34145;HTU21D;69555;53.014;8.886;2024-01-15T18:18:37;0.98;108.13
34145;HTU21D;69555;53.014;8.886;2024-01-15T18:21:03;0.96;107.95
34145;HTU21D;69555;53.014;8.886;2024-01-15T18:23:29;1.01;108.01
34145;HTU21D;69555;53.014;8.886;2024-01-15T18:25:54;1.02;107.86
34145;HTU21D;69555;53.014;8.886;2024-01-15T18:28:20;0.96;108.17
34145;HTU21D;69555;53.014;8.886;2024-01-15T18:30:45;0.91;108.62
34145;HTU21D;69555;53.014;8.886;2024-01-15T18:33:11;0.84;109.38
34145;HTU21D;69555;53.014;8.886;2024-01-15T18:35:38;0.79;109.72
34145;HTU21D;69555;53.014;8.886;2024-01-15T18:38:04;0.76;110.18
34145;HTU21D;69555;53.014;8.886;2024-01-15T18:40:29;0.82;110.16
34145;HTU21D;69555;53.014;8.886;2024-01-15T18:43:00;0.90;109.53
34145;HTU21D;69555;53.014;8.886;2024-01-15T18:45:25;0.86;109.51
34145;HTU21D;69555;53.014;8.886;2024-01-15T18:47:51;0.89;109.37
34145;HTU21D;69555;53.014;8.886;2024-01-15T18:50:16;0.93;108.91
34145;HTU21D;69555;53.014;8.886;2024-01-15T18:52:42;0.93;108.44
34145;HTU21D;69555;53.014;8.886;2024-01-15T18:55:07;0.94;108.46
34145;HTU21D;69555;53.014;8.886;2024-01-15T18:57:39;1.02;108.27
34145;HTU21D;69555;53.014;8.886;2024-01-15T19:00:05;1.02;108.65
34145;HTU21D;69555;53.014;8.886;2024-01-15T19:02:30;0.97;108.60
34145;HTU21D;69555;53.014;8.886;2024-01-15T19:04:56;0.96;108.54
34145;HTU21D;69555;53.014;8.886;2024-01-15T19:07:21;0.92;108.72
34145;HTU21D;69555;53.014;8.886;2024-01-15T19:09:47;0.97;108.29
34145;HTU21D;69555;53.014;8.886;2024-01-15T19:12:12;0.88;108.76
34145;HTU21D;69555;53.014;8.886;2024-01-15T19:14:37;1.04;108.73
34145;HTU21D;69555;53.014;8.886;2024-01-15T19:17:03;0.95;108.76
34145;HTU21D;69555;53.014;8.886;2024-01-15T19:19:29;0.94;109.08
34145;HTU21D;69555;53.014;8.886;2024-01-15T19:21:56;1.01;109.39
34145;HTU21D;69555;53.014;8.886;2024-01-15T19:24:22;0.96;109.07
34145;HTU21D;69555;53.014;8.886;2024-01-15T19:26:47;1.03;108.71
34145;HTU21D;69555;53.014;8.886;2024-01-15T19:29:13;0.98;108.52
34145;HTU21D;69555;53.014;8.886;2024-01-15T19:31:38;0.97;108.35
34145;HTU21D;69555;53.014;8.886;2024-01-15T19:34:04;0.87;108.20
34145;HTU21D;69555;53.014;8.886;2024-01-15T19:36:30;0.91;107.45
34145;HTU21D;69555;53.014;8.886;2024-01-15T19:38:56;0.88;106.43
34145;HTU21D;69555;53.014;8.886;2024-01-15T19:41:22;0.86;106.24
34145;HTU21D;69555;53.014;8.886;2024-01-15T19:43:47;0.84;106.58
34145;HTU21D;69555;53.014;8.886;2024-01-15T19:46:13;0.82;107.01
34145;HTU21D;69555;53.014;8.886;2024-01-15T19:48:38;0.74;107.14
34145;HTU21D;69555;53.014;8.886;2024-01-15T19:51:06;0.77;107.09
34145;HTU21D;69555;53.014;8.886;2024-01-15T19:53:32;0.68;107.21
34145;HTU21D;69555;53.014;8.886;2024-01-15T19:55:57;0.64;107.95
34145;HTU21D;69555;53.014;8.886;2024-01-15T19:58:23;0.68;107.78
34145;HTU21D;69555;53.014;8.886;2024-01-15T20:00:48;0.67;108.27
34145;HTU21D;69555;53.014;8.886;2024-01-15T20:03:14;0.74;108.17
34145;HTU21D;69555;53.014;8.886;2024-01-15T20:05:39;0.78;108.02
34145;HTU21D;69555;53.014;8.886;2024-01-15T20:08:05;0.78;107.93
34145;HTU21D;69555;53.014;8.886;2024-01-15T20:10:31;0.80;107.65
34145;HTU21D;69555;53.014;8.886;2024-01-15T20:12:58;0.84;107.07
34145;HTU21D;69555;53.014;8.886;2024-01-15T20:15:23;0.83;107.04
34145;HTU21D;69555;53.014;8.886;2024-01-15T20:17:51;0.87;106.89
34145;HTU21D;69555;53.014;8.886;2024-01-15T20:20:17;0.76;107.53
34145;HTU21D;69555;53.014;8.886;2024-01-15T20:22:43;0.83;107.20
34145;HTU21D;69555;53.014;8.886;2024-01-15T20:25:08;0.74;107.64
34145;HTU21D;69555;53.014;8.886;2024-01-15T20:27:34;0.76;107.34